Time;durP1;ratioP1;P1;durP2;ratioP2;P2;SDS_P1;SDS_P2;PMS_P1;PMS_P2;Temp;Humidity;BMP_temperature;BMP_pressure;BME280_temperature;BME280_humidity;BME280_pressure;Samples;Min_cycle;Max_cycle;Signal;HPM_P1;HPM_P2
2023/04/22 00:02:07;;;;;;;50.83;23.60;;;8.60;99.90;;;;;;4886515;29;20036;-91
2023/04/22 00:04:33;;;;;;;56.20;26.50;;;8.60;99.90;;;;;;4902475;29;20179;-90
2023/04/22 00:07:00;;;;;;;47.65;24.58;;;8.50;99.90;;;;;;4902219;29;20028;-91
2023/04/22 00:09:25;;;;;;;48.10;23.75;;;8.50;99.90;;;;;;4902115;29;20028;-91
2023/04/22 00:11:51;;;;;;;48.55;24.48;;;8.50;99.90;;;;;;4885204;29;20035;-89
2023/04/22 00:14:17;;;;;;;47.75;24.38;;;8.50;99.90;;;;;;4885285;29;20379;-91
2023/04/22 00:16:43;;;;;;;52.92;27.35;;;8.50;99.90;;;;;;4901998;29;20155;-91
2023/04/22 00:19:09;;;;;;;60.40;26.80;;;8.50;99.90;;;;;;4902215;29;20030;-90
2023/04/22 00:21:35;;;;;;;53.95;25.05;;;8.50;99.90;;;;;;4901556;29;20107;-90
2023/04/22 00:24:00;;;;;;;53.10;24.80;;;8.50;99.90;;;;;;4885046;29;20029;-89
2023/04/22 00:26:27;;;;;;;48.78;23.90;;;8.40;99.90;;;;;;4902221;29;20073;-91
2023/04/22 00:28:57;;;;;;;52.47;24.77;;;8.50;99.90;;;;;;4901945;29;20035;-91
2023/04/22 00:31:24;;;;;;;45.92;22.48;;;8.40;99.90;;;;;;4902006;29;20033;-90
2023/04/22 00:33:50;;;;;;;46.42;22.58;;;8.40;99.90;;;;;;4869916;29;20123;-88
2023/04/22 00:36:15;;;;;;;44.80;22.08;;;8.40;99.90;;;;;;4885187;29;20521;-90
2023/04/22 00:38:52;;;;;;;47.10;22.13;;;8.40;99.90;;;;;;4884890;29;20031;-91
2023/04/22 00:41:19;;;;;;;42.53;21.50;;;8.40;99.90;;;;;;4901681;29;20044;-90
2023/04/22 00:43:45;;;;;;;44.15;21.95;;;8.40;99.90;;;;;;4885150;29;20033;-90
2023/04/22 00:46:10;;;;;;;38.85;19.33;;;8.40;99.90;;;;;;4884848;29;20025;-90
2023/04/22 00:48:37;;;;;;;22.58;10.70;;;8.40;99.90;;;;;;4884627;29;20035;-90
2023/04/22 00:51:03;;;;;;;28.10;13.73;;;8.40;99.90;;;;;;4901316;29;20490;-91
2023/04/22 00:53:29;;;;;;;5.38;4.03;;;8.40;99.90;;;;;;4884813;29;20102;-90
2023/04/22 00:55:55;;;;;;;3.63;3.22;;;8.40;99.90;;;;;;4884925;29;20036;-91
2023/04/22 00:58:24;;;;;;;18.23;9.98;;;8.40;99.90;;;;;;4884549;29;20025;-89
2023/04/22 01:00:51;;;;;;;4.80;3.08;;;8.40;99.90;;;;;;4901184;29;20060;-92
2023/04/22 01:03:17;;;;;;;6.85;4.65;;;8.40;99.90;;;;;;4884849;29;20092;-90
2023/04/22 01:05:44;;;;;;;4.28;3.30;;;8.40;99.90;;;;;;4901218;29;20056;-90
2023/04/22 01:08:11;;;;;;;3.38;2.55;;;8.40;99.90;;;;;;4884468;29;20035;-93
2023/04/22 01:10:36;;;;;;;3.25;2.88;;;8.40;99.90;;;;;;4884047;29;20060;-91
2023/04/22 01:13:02;;;;;;;3.90;2.92;;;8.40;99.90;;;;;;4884405;29;20029;-91
2023/04/22 01:15:28;;;;;;;3.25;2.80;;;8.40;99.90;;;;;;4884722;29;20063;-91
2023/04/22 01:17:53;;;;;;;4.03;3.28;;;8.40;99.90;;;;;;4884338;29;20057;-90
2023/04/22 01:20:20;;;;;;;4.68;3.90;;;8.40;99.90;;;;;;4900991;29;20092;-92
2023/04/22 01:22:48;;;;;;;7.22;4.82;;;8.40;99.90;;;;;;4884299;29;20032;-92
2023/04/22 01:25:13;;;;;;;6.05;4.82;;;8.40;99.90;;;;;;4884552;29;20123;-91
2023/04/22 01:27:40;;;;;;;8.65;6.15;;;8.40;99.90;;;;;;4884684;29;20432;-91
2023/04/22 01:30:06;;;;;;;15.05;8.25;;;8.40;99.90;;;;;;4884058;29;20444;-92
2023/04/22 01:32:32;;;;;;;12.77;8.25;;;8.40;99.90;;;;;;4883455;29;20041;-91
2023/04/22 01:34:58;;;;;;;14.38;8.55;;;8.30;99.90;;;;;;4899406;29;20045;-92
2023/04/22 01:37:24;;;;;;;11.65;7.40;;;8.40;99.90;;;;;;4883801;29;20035;-91
2023/04/22 01:39:50;;;;;;;13.88;7.10;;;8.40;99.90;;;;;;4883999;29;20029;-90
2023/04/22 01:42:16;;;;;;;9.60;6.13;;;8.40;99.90;;;;;;4883886;29;20047;-90
2023/04/22 01:44:42;;;;;;;9.25;5.40;;;8.40;99.90;;;;;;4899342;29;20487;-88
2023/04/22 01:47:07;;;;;;;8.55;5.57;;;8.40;99.90;;;;;;4883568;29;20435;-90
2023/04/22 01:49:33;;;;;;;9.88;5.90;;;8.30;99.90;;;;;;4883596;29;20037;-91
2023/04/22 01:51:59;;;;;;;15.35;7.07;;;8.30;99.90;;;;;;4883650;29;20040;-91
2023/04/22 01:54:26;;;;;;;11.07;6.22;;;8.30;99.90;;;;;;4883466;29;20040;-89
2023/04/22 01:56:53;;;;;;;19.58;8.10;;;8.30;99.90;;;;;;4883302;29;20390;-89
2023/04/22 01:59:20;;;;;;;12.05;6.00;;;8.30;99.90;;;;;;4883325;29;20024;-90
2023/04/22 02:01:46;;;;;;;13.60;7.15;;;8.30;99.90;;;;;;4883188;29;20732;-88
2023/04/22 02:04:12;;;;;;;10.98;6.20;;;8.30;99.90;;;;;;4899648;29;20080;-88
2023/04/22 02:06:38;;;;;;;11.45;6.47;;;8.30;99.90;;;;;;4899823;29;20032;-88
2023/04/22 02:09:03;;;;;;;11.88;7.13;;;8.30;99.90;;;;;;4883131;29;20029;-89
2023/04/22 02:11:29;;;;;;;10.45;6.57;;;8.30;99.90;;;;;;4883433;29;20025;-88
2023/04/22 02:13:55;;;;;;;14.50;7.38;;;8.30;99.90;;;;;;4899688;29;20071;-89
2023/04/22 02:16:21;;;;;;;19.70;8.45;;;8.20;99.90;;;;;;4882680;29;20056;-89
2023/04/22 02:18:46;;;;;;;16.17;8.48;;;8.20;99.90;;;;;;4899805;29;20080;-89
2023/04/22 02:21:12;;;;;;;16.55;8.27;;;8.20;99.90;;;;;;4882801;29;20131;-89
2023/04/22 02:23:38;;;;;;;17.35;8.80;;;8.20;99.90;;;;;;4899573;29;20324;-89
2023/04/22 02:26:07;;;;;;;17.95;8.82;;;8.20;99.90;;;;;;4883173;29;20049;-90
2023/04/22 02:28:32;;;;;;;17.35;9.02;;;8.20;99.90;;;;;;4882829;29;20039;-88
2023/04/22 02:31:00;;;;;;;18.75;9.63;;;8.20;99.90;;;;;;4882737;29;20387;-88
2023/04/22 02:33:26;;;;;;;14.40;8.35;;;8.20;99.90;;;;;;4899094;29;20092;-88
2023/04/22 02:35:51;;;;;;;19.63;9.38;;;8.20;99.90;;;;;;4899572;29;20041;-89
2023/04/22 02:38:18;;;;;;;17.88;9.60;;;8.20;99.90;;;;;;4882916;29;20543;-89
2023/04/22 02:40:43;;;;;;;16.40;9.85;;;8.20;99.90;;;;;;4882665;29;20124;-89
2023/04/22 02:43:09;;;;;;;13.02;8.13;;;8.30;99.90;;;;;;4882449;29;20060;-88
2023/04/22 02:45:35;;;;;;;18.83;8.32;;;8.20;99.90;;;;;;4882434;29;20056;-89
2023/04/22 02:48:00;;;;;;;15.25;8.55;;;8.20;99.90;;;;;;4883854;29;20546;-88
2023/04/22 02:50:26;;;;;;;14.75;8.60;;;8.20;99.90;;;;;;4899588;29;20033;-90
2023/04/22 02:52:51;;;;;;;17.63;9.45;;;8.20;99.90;;;;;;4883305;29;20035;-88
2023/04/22 02:55:17;;;;;;;20.63;9.18;;;8.20;99.90;;;;;;4900224;29;20043;-87
2023/04/22 02:57:43;;;;;;;14.00;7.70;;;8.20;99.90;;;;;;4883114;29;20128;-88
2023/04/22 03:00:09;;;;;;;17.35;8.75;;;8.20;99.90;;;;;;4899400;29;20028;-90
2023/04/22 03:02:35;;;;;;;14.20;8.10;;;8.20;99.90;;;;;;4882692;29;20072;-90
2023/04/22 03:05:01;;;;;;;13.30;8.05;;;8.20;99.90;;;;;;4899064;29;20060;-90
2023/04/22 03:07:27;;;;;;;14.52;8.20;;;8.20;99.90;;;;;;4899018;29;20048;-91
2023/04/22 03:09:54;;;;;;;16.77;8.00;;;8.20;99.90;;;;;;4882494;29;20029;-90
2023/04/22 03:12:20;;;;;;;15.77;7.22;;;8.20;99.90;;;;;;4882402;29;20080;-91
2023/04/22 03:14:46;;;;;;;12.77;8.00;;;8.30;99.90;;;;;;4882381;29;20044;-90
2023/04/22 03:17:11;;;;;;;11.73;7.72;;;8.30;99.90;;;;;;4882402;29;20029;-91
2023/04/22 03:19:37;;;;;;;13.82;8.05;;;8.30;99.90;;;;;;4882484;29;20044;-90
2023/04/22 03:22:03;;;;;;;14.32;8.00;;;8.20;99.90;;;;;;4882195;29;20028;-92
2023/04/22 03:24:29;;;;;;;13.55;7.88;;;8.20;99.90;;;;;;4882217;29;20185;-91
2023/04/22 03:26:54;;;;;;;13.73;7.45;;;8.20;99.90;;;;;;4881979;29;20035;-91
2023/04/22 03:29:20;;;;;;;13.45;8.45;;;8.10;99.90;;;;;;4882547;29;20387;-91
2023/04/22 03:31:46;;;;;;;15.90;8.05;;;8.10;99.90;;;;;;4899920;29;20084;-89
2023/04/22 03:34:11;;;;;;;10.75;7.35;;;8.10;99.90;;;;;;4897880;29;20277;-89
2023/04/22 03:36:37;;;;;;;10.75;7.22;;;8.10;99.90;;;;;;4882089;29;20124;-90
2023/04/22 03:39:03;;;;;;;12.95;7.20;;;8.10;99.90;;;;;;4882091;29;20036;-89
2023/04/22 03:41:28;;;;;;;9.85;7.03;;;8.10;99.90;;;;;;4898577;29;20024;-91
2023/04/22 03:43:54;;;;;;;9.45;6.63;;;8.10;99.90;;;;;;4881681;29;20044;-90
2023/04/22 03:46:20;;;;;;;14.63;8.20;;;8.10;99.90;;;;;;4881898;29;20049;-89
2023/04/22 03:48:45;;;;;;;9.88;6.57;;;8.10;99.90;;;;;;4898553;29;20036;-90
2023/04/22 03:51:11;;;;;;;9.13;6.55;;;8.10;99.90;;;;;;4881938;29;20021;-89
2023/04/22 03:53:36;;;;;;;13.02;7.45;;;8.10;99.90;;;;;;4881613;29;20028;-90
2023/04/22 03:56:02;;;;;;;8.70;6.35;;;8.10;99.90;;;;;;4881953;29;20070;-87
2023/04/22 03:58:28;;;;;;;10.63;7.00;;;8.10;99.90;;;;;;4883153;29;20479;-86
2023/04/22 04:00:54;;;;;;;10.93;6.88;;;8.10;99.90;;;;;;4883286;29;20037;-89
2023/04/22 04:03:19;;;;;;;13.20;6.72;;;8.10;99.90;;;;;;4900024;29;20024;-88
2023/04/22 04:05:45;;;;;;;16.58;7.65;;;8.10;99.90;;;;;;4882419;29;20045;-88
2023/04/22 04:08:10;;;;;;;11.95;7.18;;;8.10;99.90;;;;;;4908787;29;20036;-87
2023/04/22 04:10:36;;;;;;;10.32;7.07;;;8.00;99.90;;;;;;4899158;29;20033;-87
2023/04/22 04:13:02;;;;;;;8.95;6.05;;;8.00;99.90;;;;;;4881491;29;20044;-89
2023/04/22 04:15:29;;;;;;;8.73;5.97;;;8.00;99.90;;;;;;4881691;29;20047;-88
2023/04/22 04:17:55;;;;;;;13.18;6.63;;;8.00;99.90;;;;;;4881725;29;20028;-88
2023/04/22 04:20:21;;;;;;;12.20;6.57;;;8.00;99.90;;;;;;4884608;29;20032;-88
2023/04/22 04:22:47;;;;;;;12.20;6.93;;;8.00;99.90;;;;;;4901808;29;20448;-88
2023/04/22 04:25:12;;;;;;;8.77;5.93;;;8.00;99.90;;;;;;4881424;29;20546;-88
2023/04/22 04:27:38;;;;;;;11.00;6.20;;;8.00;99.90;;;;;;4881245;29;20025;-87
2023/04/22 04:30:05;;;;;;;11.35;5.97;;;8.00;99.90;;;;;;4898274;29;20161;-89
2023/04/22 04:32:33;;;;;;;12.18;5.75;;;8.00;99.90;;;;;;4898287;29;20502;-88
2023/04/22 04:34:59;;;;;;;7.90;4.72;;;8.00;99.90;;;;;;4898175;29;20048;-88
2023/04/22 04:37:25;;;;;;;12.88;5.35;;;8.00;99.90;;;;;;4898288;29;20383;-89
2023/04/22 04:39:50;;;;;;;9.32;5.47;;;8.00;99.90;;;;;;4897989;29;20033;-88
2023/04/22 04:42:17;;;;;;;8.52;5.85;;;8.00;99.90;;;;;;4897680;29;20031;-88
2023/04/22 04:44:42;;;;;;;8.68;5.35;;;8.00;99.90;;;;;;4899024;29;20487;-87
2023/04/22 04:47:08;;;;;;;8.05;5.15;;;7.90;99.90;;;;;;4901648;29;20028;-88
2023/04/22 04:49:38;;;;;;;8.95;4.70;;;8.00;99.90;;;;;;4884637;29;20075;-88
2023/04/22 04:52:04;;;;;;;8.43;5.10;;;8.00;99.90;;;;;;4884492;29;20025;-88
2023/04/22 04:54:30;;;;;;;7.40;4.68;;;8.00;99.90;;;;;;4884406;29;20050;-89
2023/04/22 04:56:56;;;;;;;7.90;5.13;;;8.00;99.90;;;;;;4884406;29;20033;-90
2023/04/22 04:59:22;;;;;;;7.20;4.63;;;8.00;99.90;;;;;;4884481;29;20032;-89
2023/04/22 05:01:47;;;;;;;9.95;5.50;;;8.00;99.90;;;;;;4901088;29;20032;-90
2023/04/22 05:04:13;;;;;;;6.70;4.90;;;8.00;99.90;;;;;;4884014;29;20107;-89
2023/04/22 05:06:39;;;;;;;8.88;5.72;;;8.00;99.90;;;;;;4884698;29;20055;-89
2023/04/22 05:09:06;;;;;;;8.73;5.70;;;8.00;99.90;;;;;;4884308;29;20032;-87
2023/04/22 05:11:32;;;;;;;8.00;5.45;;;8.00;99.90;;;;;;4883961;29;20020;-89
2023/04/22 05:13:57;;;;;;;10.88;5.70;;;8.00;99.90;;;;;;4884105;29;20087;-90
2023/04/22 05:16:23;;;;;;;6.05;3.70;;;8.00;99.90;;;;;;4901120;29;20036;-89
2023/04/22 05:18:49;;;;;;;5.10;3.80;;;8.00;99.90;;;;;;4900741;29;20029;-91
2023/04/22 05:21:15;;;;;;;5.80;3.42;;;8.00;99.90;;;;;;4884122;29;20037;-88
2023/04/22 05:23:41;;;;;;;6.88;3.40;;;8.00;99.90;;;;;;4900835;29;20028;-89
2023/04/22 05:26:06;;;;;;;4.22;3.15;;;8.00;99.90;;;;;;4883972;29;20032;-89
2023/04/22 05:28:32;;;;;;;5.05;3.47;;;8.00;99.90;;;;;;4883945;29;20028;-89
2023/04/22 05:30:58;;;;;;;4.78;3.78;;;8.00;99.90;;;;;;4900818;29;20036;-89
2023/04/22 05:33:23;;;;;;;7.40;3.95;;;8.00;99.90;;;;;;4900685;29;20498;-90
2023/04/22 05:35:50;;;;;;;4.90;4.00;;;8.00;99.90;;;;;;4900606;29;20502;-89
2023/04/22 05:38:16;;;;;;;7.60;3.88;;;8.00;99.90;;;;;;4900462;29;20088;-90
2023/04/22 05:40:41;;;;;;;4.97;3.47;;;8.00;99.90;;;;;;4900186;29;20056;-89
2023/04/22 05:43:08;;;;;;;5.30;4.18;;;8.00;99.90;;;;;;4883586;29;20498;-88
2023/04/22 05:45:33;;;;;;;5.65;4.22;;;8.00;99.90;;;;;;4900455;29;20029;-90
2023/04/22 05:47:59;;;;;;;5.95;3.65;;;8.00;99.90;;;;;;4900618;29;20038;-89
2023/04/22 05:50:25;;;;;;;5.32;3.90;;;8.00;99.90;;;;;;4904500;29;20035;-89
2023/04/22 05:52:50;;;;;;;7.82;4.07;;;8.00;99.90;;;;;;4901475;29;20032;-90
2023/04/22 05:55:16;;;;;;;6.38;4.57;;;8.10;99.90;;;;;;4900311;29;20097;-88
2023/04/22 05:57:41;;;;;;;8.98;5.00;;;8.10;99.90;;;;;;4883246;29;20033;-88
2023/04/22 06:00:08;;;;;;;8.25;5.47;;;8.10;99.90;;;;;;4883601;29;20108;-90
2023/04/22 06:02:34;;;;;;;11.35;5.25;;;8.10;99.90;;;;;;4883537;29;20028;-91
2023/04/22 06:04:59;;;;;;;7.22;5.43;;;8.10;99.90;;;;;;4899999;29;20533;-91
2023/04/22 06:07:25;;;;;;;7.70;4.95;;;8.10;99.90;;;;;;4883470;29;20032;-91
2023/04/22 06:09:51;;;;;;;7.90;5.07;;;8.10;99.90;;;;;;4883483;29;20028;-90
2023/04/22 06:12:17;;;;;;;7.43;5.07;;;8.10;99.90;;;;;;4883354;29;20052;-90
2023/04/22 06:14:43;;;;;;;6.07;4.50;;;8.10;99.90;;;;;;4899894;29;20454;-90
2023/04/22 06:17:08;;;;;;;7.18;5.13;;;8.10;99.90;;;;;;4882968;29;20067;-91
2023/04/22 06:19:34;;;;;;;8.07;5.35;;;8.10;99.90;;;;;;4899969;29;20040;-91
2023/04/22 06:22:00;;;;;;;8.85;5.30;;;8.10;99.90;;;;;;4883199;29;20032;-91
2023/04/22 06:24:25;;;;;;;8.80;5.50;;;8.10;99.90;;;;;;4899560;29;20063;-90
2023/04/22 06:26:51;;;;;;;9.25;6.03;;;8.10;99.90;;;;;;4883111;29;20032;-90
2023/04/22 06:29:17;;;;;;;11.25;6.20;;;8.10;99.90;;;;;;4883358;29;20119;-91
2023/04/22 06:31:42;;;;;;;15.35;8.13;;;8.10;99.90;;;;;;4883814;29;20043;-91
2023/04/22 06:34:08;;;;;;;8.32;5.03;;;8.10;99.90;;;;;;4900629;29;20035;-91
2023/04/22 06:36:36;;;;;;;8.50;5.57;;;8.10;99.90;;;;;;4884077;29;20032;-91
2023/04/22 06:39:04;;;;;;;14.40;8.88;;;8.10;99.90;;;;;;4883100;29;20108;-90
2023/04/22 06:41:30;;;;;;;14.55;7.70;;;8.10;99.90;;;;;;4883110;29;20059;-90
2023/04/22 06:43:55;;;;;;;16.67;8.63;;;8.10;99.90;;;;;;4899350;29;20032;-89
2023/04/22 06:46:21;;;;;;;22.63;11.57;;;8.00;99.90;;;;;;4899636;29;20030;-90
2023/04/22 06:48:47;;;;;;;27.38;13.02;;;8.00;99.90;;;;;;4899422;29;20036;-90
2023/04/22 06:51:12;;;;;;;25.45;12.10;;;8.00;99.90;;;;;;4899132;29;20036;-90
2023/04/22 06:53:38;;;;;;;24.27;13.02;;;7.90;99.90;;;;;;4882742;29;20120;-91
2023/04/22 06:56:04;;;;;;;31.45;14.80;;;7.90;99.90;;;;;;4882935;29;20037;-89
2023/04/22 06:58:30;;;;;;;34.95;15.65;;;7.90;99.90;;;;;;4899429;29;20053;-88
2023/04/22 07:00:56;;;;;;;26.77;13.15;;;7.90;99.90;;;;;;4899309;29;20037;-91
2023/04/22 07:03:21;;;;;;;24.40;11.70;;;7.80;99.90;;;;;;4882757;29;20028;-90
2023/04/22 07:05:47;;;;;;;26.05;12.40;;;7.90;99.90;;;;;;4882030;29;20083;-90
2023/04/22 07:08:13;;;;;;;37.35;16.15;;;7.90;99.90;;;;;;4898374;29;20031;-89
2023/04/22 07:10:39;;;;;;;36.55;15.32;;;7.90;99.90;;;;;;4882438;29;20021;-90
2023/04/22 07:13:04;;;;;;;37.03;15.98;;;7.80;99.90;;;;;;4882583;29;20032;-90
2023/04/22 07:15:30;;;;;;;42.53;18.95;;;7.90;99.90;;;;;;4883743;29;20037;-89
2023/04/22 07:17:56;;;;;;;36.22;16.75;;;7.80;99.90;;;;;;4896062;29;20039;-90
2023/04/22 07:20:21;;;;;;;39.40;18.48;;;7.80;99.90;;;;;;4885723;29;20033;-91
2023/04/22 07:22:47;;;;;;;44.50;21.50;;;7.80;99.90;;;;;;4898207;29;20044;-91
2023/04/22 07:25:13;;;;;;;50.90;23.50;;;7.90;99.90;;;;;;4901938;29;20048;-89
2023/04/22 07:27:38;;;;;;;51.67;24.52;;;7.80;99.90;;;;;;4901075;29;20029;-90
2023/04/22 07:30:06;;;;;;;54.78;23.83;;;7.80;99.90;;;;;;4906862;29;20436;-91
2023/04/22 07:32:32;;;;;;;47.50;21.83;;;7.80;99.90;;;;;;4870145;29;20249;-90
2023/04/22 07:34:57;;;;;;;52.92;23.98;;;7.90;99.90;;;;;;4884033;29;20092;-88
2023/04/22 07:37:23;;;;;;;56.97;25.88;;;7.90;99.90;;;;;;4883486;29;20475;-91
2023/04/22 07:39:49;;;;;;;51.08;23.85;;;7.90;99.90;;;;;;4900271;29;20028;-90
2023/04/22 07:42:15;;;;;;;50.75;24.85;;;7.90;99.90;;;;;;4883920;29;20433;-89
2023/04/22 07:44:40;;;;;;;56.75;24.00;;;7.90;99.90;;;;;;4883123;29;20036;-90
2023/04/22 07:47:09;;;;;;;47.92;22.48;;;8.00;99.90;;;;;;4900283;29;20483;-90
2023/04/22 07:49:35;;;;;;;59.22;25.83;;;8.00;99.90;;;;;;4884126;29;20028;-89
2023/04/22 07:52:01;;;;;;;58.05;26.00;;;8.10;99.90;;;;;;4883040;29;20055;-89
2023/04/22 07:54:26;;;;;;;68.43;27.58;;;8.10;99.90;;;;;;4899934;29;20032;-91
2023/04/22 07:56:52;;;;;;;62.20;28.35;;;8.20;99.90;;;;;;4882912;29;20443;-90
2023/04/22 07:59:17;;;;;;;70.95;30.05;;;8.20;99.90;;;;;;4882646;29;20124;-88
2023/04/22 08:01:45;;;;;;;67.85;29.42;;;8.20;99.90;;;;;;4882591;29;20387;-88
2023/04/22 08:04:11;;;;;;;71.15;29.67;;;8.30;99.90;;;;;;4882427;29;20060;-89
2023/04/22 08:06:36;;;;;;;77.25;31.30;;;8.40;99.90;;;;;;4900242;29;20033;-87
2023/04/22 08:09:02;;;;;;;68.55;29.67;;;8.50;99.90;;;;;;4882400;29;20029;-89
2023/04/22 08:11:28;;;;;;;60.03;28.95;;;8.60;99.90;;;;;;4884483;29;20088;-88
2023/04/22 08:13:54;;;;;;;69.82;28.63;;;8.70;99.90;;;;;;4882126;29;20024;-89
2023/04/22 08:16:19;;;;;;;70.65;32.28;;;8.70;99.90;;;;;;4882314;29;20040;-89
2023/04/22 08:18:45;;;;;;;64.90;29.88;;;8.80;99.90;;;;;;4898149;29;20432;-89
2023/04/22 08:21:11;;;;;;;69.82;30.02;;;8.80;99.90;;;;;;4885139;29;20033;-89
2023/04/22 08:23:37;;;;;;;60.42;26.60;;;8.90;99.90;;;;;;4885208;29;20084;-89
2023/04/22 08:26:03;;;;;;;56.92;26.80;;;8.90;99.90;;;;;;4885053;29;20183;-88
2023/04/22 08:28:28;;;;;;;65.50;28.85;;;9.00;99.90;;;;;;4901768;29;20032;-88
2023/04/22 08:30:54;;;;;;;53.60;24.83;;;9.00;99.90;;;;;;4901719;29;20027;-88
2023/04/22 08:33:20;;;;;;;58.70;25.65;;;9.00;99.90;;;;;;4884613;29;20060;-89
2023/04/22 08:35:46;;;;;;;59.00;28.08;;;9.10;99.90;;;;;;4901788;29;20399;-89
2023/04/22 08:38:11;;;;;;;52.30;25.70;;;9.20;99.90;;;;;;4885103;29;20052;-89
2023/04/22 08:40:41;;;;;;;49.90;23.77;;;9.30;99.90;;;;;;4886392;29;20432;-89
2023/04/22 08:43:07;;;;;;;48.05;20.80;;;9.40;99.90;;;;;;4884923;29;20025;-90
2023/04/22 08:45:33;;;;;;;47.10;22.40;;;9.40;99.90;;;;;;4885145;29;20045;-88
2023/04/22 08:47:59;;;;;;;48.28;21.20;;;9.40;99.90;;;;;;4884831;29;20035;-88
2023/04/22 08:50:25;;;;;;;45.58;20.85;;;9.40;99.90;;;;;;4884995;29;20486;-88
2023/04/22 08:52:51;;;;;;;40.35;20.60;;;9.50;99.90;;;;;;4901596;29;20032;-89
2023/04/22 08:55:17;;;;;;;44.45;21.30;;;9.50;99.90;;;;;;4884509;29;20073;-89
2023/04/22 08:57:43;;;;;;;44.30;21.02;;;9.50;99.90;;;;;;4884456;29;20095;-89
2023/04/22 09:00:09;;;;;;;48.88;22.20;;;9.50;99.90;;;;;;4901114;29;20089;-88
2023/04/22 09:02:37;;;;;;;46.20;20.48;;;9.50;99.90;;;;;;4900972;29;20028;-89
2023/04/22 09:05:05;;;;;;;41.28;20.75;;;9.50;99.90;;;;;;4884278;29;20538;-88
2023/04/22 09:07:32;;;;;;;37.22;18.58;;;9.60;99.90;;;;;;4884410;29;20136;-90
2023/04/22 09:09:58;;;;;;;32.40;16.13;;;9.60;99.90;;;;;;4884472;29;20035;-90
2023/04/22 09:12:27;;;;;;;37.13;17.70;;;9.70;99.90;;;;;;4884107;29;20136;-90
2023/04/22 09:14:53;;;;;;;33.08;16.38;;;9.60;99.90;;;;;;4884648;29;20040;-90
2023/04/22 09:17:34;;;;;;;29.45;15.63;;;9.70;99.90;;;;;;4885291;29;20036;-90
2023/04/22 09:20:00;;;;;;;31.67;16.48;;;9.60;99.90;;;;;;4884181;29;20550;-91
2023/04/22 09:22:41;;;;;;;32.30;15.05;;;9.70;99.90;;;;;;4884215;29;20064;-89
2023/04/22 09:25:16;;;;;;;35.45;15.95;;;9.70;99.90;;;;;;4885135;29;20043;-89
2023/04/22 09:27:42;;;;;;;25.75;14.63;;;9.80;99.90;;;;;;4884690;29;20029;-90
2023/04/22 09:30:09;;;;;;;30.98;13.82;;;10.00;99.90;;;;;;4884372;29;20067;-89
2023/04/22 09:32:35;;;;;;;26.25;14.38;;;10.10;99.90;;;;;;4883087;29;20028;-88
2023/04/22 09:35:00;;;;;;;27.42;13.77;;;10.30;99.90;;;;;;4883774;29;20415;-90
2023/04/22 09:37:26;;;;;;;24.65;13.65;;;10.40;99.90;;;;;;4901414;29;20084;-91
2023/04/22 09:39:53;;;;;;;30.38;14.40;;;10.60;99.90;;;;;;4883990;29;20068;-90
2023/04/22 09:42:19;;;;;;;26.52;13.75;;;10.70;99.90;;;;;;4900850;29;20024;-88
2023/04/22 09:44:52;;;;;;;25.90;13.73;;;10.80;99.90;;;;;;4901044;29;20060;-89
2023/04/22 09:47:19;;;;;;;25.13;13.35;;;10.90;99.90;;;;;;4883632;29;20021;-89
2023/04/22 09:49:46;;;;;;;30.15;13.90;;;11.00;99.90;;;;;;4883836;29;20033;-90
2023/04/22 09:52:23;;;;;;;26.75;13.38;;;11.20;99.90;;;;;;4883902;29;20108;-90
2023/04/22 09:54:50;;;;;;;28.27;14.07;;;11.50;99.90;;;;;;4884384;29;20064;-87
2023/04/22 09:57:16;;;;;;;27.17;14.68;;;11.60;99.90;;;;;;4883928;29;20036;-89
2023/04/22 09:59:42;;;;;;;29.08;16.02;;;11.80;99.90;;;;;;4883493;29;20636;-89
2023/04/22 10:02:08;;;;;;;30.27;14.68;;;12.00;99.90;;;;;;4883752;29;20504;-89
2023/04/22 10:04:34;;;;;;;26.48;14.57;;;12.10;99.90;;;;;;4883207;29;20403;-89
2023/04/22 10:07:01;;;;;;;35.60;18.08;;;12.20;99.90;;;;;;4883718;29;20033;-89
2023/04/22 10:09:30;;;;;;;32.45;15.45;;;12.20;99.90;;;;;;4883566;29;20032;-89
2023/04/22 10:11:57;;;;;;;26.48;15.00;;;12.10;99.90;;;;;;4883265;29;20531;-90
2023/04/22 10:14:24;;;;;;;32.13;17.17;;;12.20;99.90;;;;;;4901369;29;20044;-89
2023/04/22 10:16:53;;;;;;;30.23;16.45;;;12.40;99.90;;;;;;4883670;29;20412;-91
2023/04/22 10:19:21;;;;;;;29.02;14.00;;;12.60;99.90;;;;;;4883360;29;20070;-90
2023/04/22 10:21:51;;;;;;;29.52;15.18;;;12.70;99.90;;;;;;4884179;29;20029;-90
2023/04/22 10:24:18;;;;;;;27.75;13.77;;;12.70;99.90;;;;;;4900400;29;20108;-90
2023/04/22 10:26:49;;;;;;;26.15;14.80;;;12.60;99.90;;;;;;4900328;29;20043;-90
2023/04/22 10:29:17;;;;;;;22.98;14.32;;;12.60;99.90;;;;;;4901056;29;20391;-90
2023/04/22 10:32:02;;;;;;;24.73;13.52;;;12.50;99.90;;;;;;4883923;29;20044;-91
2023/04/22 10:34:31;;;;;;;28.65;15.30;;;12.50;99.90;;;;;;4883868;29;20040;-91
2023/04/22 10:37:08;;;;;;;29.90;15.63;;;12.40;99.90;;;;;;4900415;29;20028;-92
2023/04/22 10:39:34;;;;;;;30.35;16.23;;;12.40;99.90;;;;;;4883763;29;20024;-91
2023/04/22 10:42:08;;;;;;;28.85;16.23;;;12.30;99.90;;;;;;4883959;29;20036;-91
2023/04/22 10:44:54;;;;;;;35.42;17.30;;;12.30;99.90;;;;;;4884609;29;20092;-90
2023/04/22 10:47:25;;;;;;;29.75;16.10;;;12.30;99.90;;;;;;4883961;29;20119;-90
2023/04/22 10:50:07;;;;;;;28.95;16.88;;;12.30;99.90;;;;;;4883786;29;20036;-91
2023/04/22 10:52:33;;;;;;;29.27;16.88;;;12.30;99.90;;;;;;4882112;29;20029;-89
2023/04/22 10:54:59;;;;;;;32.53;16.05;;;12.30;99.90;;;;;;4884257;29;20036;-90
2023/04/22 10:57:37;;;;;;;30.25;15.73;;;12.20;99.90;;;;;;4883853;29;20024;-91
2023/04/22 11:00:23;;;;;;;33.08;16.83;;;12.30;99.90;;;;;;4883345;29;20498;-91
2023/04/22 11:03:06;;;;;;;28.65;15.20;;;12.40;99.90;;;;;;4883243;29;20128;-91
2023/04/22 11:05:34;;;;;;;30.60;15.50;;;12.60;99.90;;;;;;4882873;29;20068;-91
2023/04/22 11:08:12;;;;;;;23.85;14.15;;;12.70;99.90;;;;;;4883142;29;20027;-90
2023/04/22 11:10:44;;;;;;;23.00;14.60;;;12.80;99.90;;;;;;4883405;29;20042;-90
2023/04/22 11:13:15;;;;;;;24.13;14.05;;;13.00;99.90;;;;;;4883071;29;20024;-90
2023/04/22 11:15:44;;;;;;;27.25;16.05;;;13.10;99.90;;;;;;4867309;29;20037;-89
2023/04/22 11:18:16;;;;;;;29.40;15.82;;;13.20;99.90;;;;;;4882392;29;20123;-91
2023/04/22 11:20:42;;;;;;;23.63;13.70;;;13.40;99.90;;;;;;4883761;29;20043;-90
2023/04/22 11:23:08;;;;;;;25.60;15.07;;;13.50;99.90;;;;;;4899479;29;20029;-90
2023/04/22 11:25:34;;;;;;;22.40;13.82;;;13.50;99.60;;;;;;4882456;29;20066;-90
2023/04/22 11:27:59;;;;;;;27.30;14.27;;;13.40;96.70;;;;;;4882541;29;20028;-89
2023/04/22 11:30:27;;;;;;;26.30;14.07;;;13.20;95.00;;;;;;4882910;29;20060;-91
2023/04/22 11:32:58;;;;;;;22.55;13.20;;;13.10;94.60;;;;;;4882871;29;20038;-90
2023/04/22 11:35:29;;;;;;;22.10;13.10;;;13.10;95.00;;;;;;4882577;29;20037;-91
2023/04/22 11:37:57;;;;;;;24.70;15.75;;;13.20;94.40;;;;;;4882857;29;20093;-90
2023/04/22 11:40:35;;;;;;;25.15;15.02;;;13.20;94.30;;;;;;4882600;29;20036;-90
2023/04/22 11:43:02;;;;;;;27.13;15.40;;;13.20;92.90;;;;;;4883540;29;20100;-89
2023/04/22 11:45:30;;;;;;;26.63;16.13;;;13.10;92.10;;;;;;4883091;29;20029;-88
2023/04/22 11:47:56;;;;;;;23.00;14.25;;;13.00;92.60;;;;;;4882200;29;20035;-90
2023/04/22 11:50:24;;;;;;;25.20;14.02;;;13.00;92.90;;;;;;4882532;29;20031;-90
2023/04/22 11:52:56;;;;;;;26.13;15.57;;;13.00;92.80;;;;;;4882495;29;20112;-89
2023/04/22 11:55:23;;;;;;;23.85;14.80;;;12.90;91.70;;;;;;4884609;29;20143;-89
2023/04/22 11:57:56;;;;;;;26.50;14.55;;;12.80;91.60;;;;;;4886446;29;20625;-90
2023/04/22 12:00:27;;;;;;;24.70;14.40;;;12.90;92.00;;;;;;4886489;29;20131;-91
2023/04/22 12:02:58;;;;;;;25.30;14.48;;;12.90;91.00;;;;;;4886738;29;20029;-91
2023/04/22 12:05:48;;;;;;;23.90;14.50;;;12.90;91.30;;;;;;4886500;29;20048;-91
2023/04/22 12:08:22;;;;;;;25.58;14.38;;;13.00;90.60;;;;;;4886450;29;20378;-91
2023/04/22 12:10:52;;;;;;;21.55;14.13;;;13.10;90.60;;;;;;4886790;29;20032;-89
2023/04/22 12:13:24;;;;;;;24.50;13.17;;;13.20;90.60;;;;;;4888536;29;20032;-88
2023/04/22 12:15:56;;;;;;;19.25;10.73;;;13.20;90.20;;;;;;4890804;29;20109;-89
2023/04/22 12:18:31;;;;;;;21.83;12.60;;;13.30;89.20;;;;;;4888893;29;20029;-91
2023/04/22 12:21:22;;;;;;;17.42;11.35;;;13.20;86.90;;;;;;4887230;29;20028;-90
2023/04/22 12:23:49;;;;;;;23.38;13.60;;;13.30;87.30;;;;;;4877651;29;20040;-89
2023/04/22 12:26:16;;;;;;;25.33;12.65;;;13.40;87.50;;;;;;4887889;29;20033;-90
2023/04/22 12:28:44;;;;;;;21.95;12.88;;;13.50;87.40;;;;;;4904928;29;20245;-90
2023/04/22 12:31:10;;;;;;;22.13;13.35;;;13.60;87.30;;;;;;4894040;29;20048;-92
2023/04/22 12:33:36;;;;;;;20.90;12.48;;;13.60;86.80;;;;;;4892585;29;20044;-91
2023/04/22 12:36:03;;;;;;;22.40;13.80;;;13.70;86.80;;;;;;4891440;29;20033;-90
2023/04/22 12:38:29;;;;;;;20.02;11.98;;;13.60;85.40;;;;;;4892259;29;20074;-89
2023/04/22 12:40:55;;;;;;;27.02;14.80;;;13.60;85.10;;;;;;4889771;29;20474;-90